Saturday, February 24, 2018, 10:47 PM EST
Back to Local

KSFM, Sanford, Sanford Regional Airport

Location: Sanford, ME, United States Lat: 43.4
Local Time: 10:47 PM EST ( 3:47 GMT) Lon: -70.717
Time Zone: US/Eastern Elev: 242 ft

Show me the last for .
Show Decoded

2018-02-24 21:56 METAR KSFM 250256Z AUTO 00000KT 10SM CLR M03/M05 A3029 RMK AO2 SLP263 T10331050
                 53033 FZRANO =
2018-02-24 20:56 METAR KSFM 250156Z AUTO 00000KT 10SM CLR M03/M04 A3026 RMK AO2 SLP251 T10281044
                 FZRANO =
2018-02-24 19:56 METAR KSFM 250056Z AUTO 00000KT 10SM CLR M01/M03 A3023 RMK AO2 SLP242 T10061028
                 FZRANO =
2018-02-24 18:56 METAR KSFM 242356Z AUTO 28003KT 10SM CLR 03/M02 A3020 RMK AO2 SLP230 T00281022
                 10094 20022 51026 =
2018-02-24 17:56 METAR KSFM 242256Z AUTO 34006KT 10SM CLR 06/M03 A3019 RMK AO2 SLP229 T00611028 =
2018-02-24 16:56 METAR KSFM 242156Z AUTO 29005KT 10SM CLR 07/M02 A3016 RMK AO2 SLP218 T00721022 =
2018-02-24 15:56 METAR KSFM 242056Z AUTO 28006KT 10SM CLR 08/M02 A3012 RMK AO2 SLP205 T00781017
                 52015 =
2018-02-24 14:56 METAR KSFM 241956Z AUTO 30014G18KT 10SM CLR 08/M02 A3010 RMK AO2 SLP199
                 T00831017 =
2018-02-24 13:56 METAR KSFM 241856Z AUTO 28011G18KT 10SM CLR 09/M02 A3009 RMK AO2 SLP194
                 T00941017 =
2018-02-24 12:56 METAR KSFM 241756Z AUTO 29015G22KT 10SM CLR 09/M02 A3007 RMK AO2 SLP189
                 T00891022 10100 20033 50008 =
2018-02-24 11:56 METAR KSFM 241656Z AUTO 30013G19KT 10SM CLR 09/M02 A3008 RMK AO2 SLP191
                 T00941017 =
2018-02-24 10:56 METAR KSFM 241556Z AUTO 31012G26KT 10SM CLR 09/M01 A3005 RMK AO2 PK WND
                 29027/1521 SLP180 T00941006 =
2018-02-24 09:56 METAR KSFM 241456Z AUTO 28013G25KT 10SM CLR 09/01 A3005 RMK AO2 SLP181 T00890006
                 51015 =
2018-02-24 08:56 METAR KSFM 241356Z AUTO 29013G25KT 10SM CLR 08/02 A3004 RMK AO2 SLP179 T00780017
                 =
2018-02-24 07:56 METAR KSFM 241256Z AUTO 27010KT 10SM CLR 06/03 A3003 RMK AO2 SLP172 T00610033 =
2018-02-24 06:56 METAR KSFM 241156Z AUTO 25007KT 10SM CLR 03/02 A3000 RMK AO2 SLP166 70018
                 T00330022 10033 20011 53018 =
2018-02-24 05:56 METAR KSFM 241056Z AUTO 24009KT 10SM CLR 02/01 A2997 RMK AO2 SLP155 T00220011
                 FZRANO =
2018-02-24 04:56 METAR KSFM 240956Z AUTO 21006KT 10SM CLR 02/01 A2996 RMK AO2 SLP151 T00170011
                 FZRANO =
2018-02-24 03:56 METAR KSFM 240856Z AUTO 23007KT 10SM CLR 02/01 A2995 RMK AO2 SLP147 T00170011
                 56016 FZRANO =
2018-02-24 03:04 METAR KSFM 240804Z AUTO 21005KT 10SM SCT005 SCT025 02/01 A2996 RMK AO2 FZRANO =
2018-02-24 02:56 METAR KSFM 240756Z AUTO 21005KT 10SM BKN005 BKN025 01/01 A2996 RMK AO2 SLP151
                 T00110011 FZRANO =
2018-02-24 01:56 METAR KSFM 240656Z AUTO 22005KT 10SM OVC005 02/01 A2997 RMK AO2 SLP155 T00170011
                 FZRANO =
2018-02-24 00:56 METAR KSFM 240556Z AUTO 22004KT 10SM OVC005 01/01 A3000 RMK AO2 SLP163 60012
                 T00110006 10011 20011 56048 FZRANO =
2018-02-23 23:56 METAR KSFM 240456Z AUTO 22006KT 10SM OVC003 01/01 A3003 RMK AO2 UPE03 SLP174
                 P0000 T00110006 FZRANO =
2018-02-23 22:56 METAR KSFM 240356Z AUTO 19004KT 6SM UP BR OVC003 01/01 A3008 RMK AO2
                 RAE04UPB04E26B47 SLP190 P0000 T00110006 400281094 FZRANO =

Support USWX by starting your Amazon purchase here.